createdAt,value
2022-07-25T00:01:11.415Z,49.07
2022-07-25T00:06:13.511Z,48.96
2022-07-25T00:11:19.410Z,49.77
2022-07-25T00:16:21.296Z,49.93
2022-07-25T00:21:23.074Z,50.12
2022-07-25T00:26:24.594Z,50.42
2022-07-25T00:31:26.288Z,50.07
2022-07-25T00:36:27.921Z,49.74
2022-07-25T00:41:29.485Z,49.56
2022-07-25T00:46:32.238Z,50.31
2022-07-25T00:51:34.868Z,50.41
2022-07-25T00:56:37.090Z,50.72
2022-07-25T01:01:39.378Z,50.83
2022-07-25T01:06:41.425Z,50.80
2022-07-25T01:11:43.087Z,49.53
2022-07-25T01:16:44.669Z,48.51
2022-07-25T01:21:46.293Z,49.18
2022-07-25T01:26:47.911Z,50.17
2022-07-25T01:31:49.530Z,50.94
2022-07-25T01:36:51.132Z,50.93
2022-07-25T01:41:52.714Z,50.77
2022-07-25T01:47:19.833Z,50.86
2022-07-25T01:52:21.504Z,51.23
2022-07-25T01:57:26.625Z,51.40
2022-07-25T02:02:35.850Z,51.31
2022-07-25T02:07:37.909Z,51.56
2022-07-25T02:12:39.416Z,52.38
2022-07-25T02:17:41.162Z,52.51
2022-07-25T02:22:42.709Z,52.82
2022-07-25T02:27:44.246Z,53.54
2022-07-25T02:32:45.838Z,53.99
2022-07-25T02:37:47.661Z,54.71
2022-07-25T02:42:49.220Z,55.49
2022-07-25T02:47:51.091Z,56.41
2022-07-25T02:52:52.664Z,56.93
2022-07-25T02:57:54.299Z,57.85
2022-07-25T03:02:56.423Z,58.57
2022-07-25T03:07:57.995Z,58.00
2022-07-25T03:12:59.723Z,58.04
2022-07-25T03:18:01.265Z,57.80
2022-07-25T03:23:03.100Z,57.95
2022-07-25T03:28:04.868Z,58.21
2022-07-25T03:33:06.472Z,58.16
2022-07-25T03:38:08.173Z,57.65
2022-07-25T03:43:09.854Z,57.60
2022-07-25T03:48:12.125Z,56.84
2022-07-25T03:53:13.790Z,56.43
2022-07-25T03:58:15.349Z,56.45
2022-07-25T04:03:16.879Z,55.90
2022-07-25T04:08:18.402Z,55.63
2022-07-25T04:13:20.101Z,55.67
2022-07-25T04:18:23.751Z,56.66
2022-07-25T04:23:31.273Z,57.73
2022-07-25T04:28:32.841Z,59.35
2022-07-25T04:33:37.483Z,60.59
2022-07-25T04:38:39.028Z,61.96
2022-07-25T04:43:44.853Z,62.82
2022-07-25T04:48:48.295Z,63.68
2022-07-25T04:53:49.928Z,64.81
2022-07-25T04:58:51.575Z,65.75
2022-07-25T05:03:53.182Z,65.95
2022-07-25T05:08:55.469Z,65.54
2022-07-25T05:13:57.178Z,65.57
2022-07-25T05:18:58.798Z,64.06
2022-07-25T05:24:00.343Z,63.40
2022-07-25T05:29:01.888Z,63.26
2022-07-25T05:34:04.055Z,63.85
2022-07-25T05:39:05.960Z,65.18
2022-07-25T05:44:07.769Z,66.09
2022-07-25T05:49:09.893Z,67.50
2022-07-25T05:54:11.617Z,68.03
2022-07-25T05:59:13.359Z,68.74
2022-07-25T06:04:14.893Z,69.72
2022-07-25T06:09:21.362Z,70.91
2022-07-25T06:14:23.290Z,71.60
2022-07-25T06:19:25.262Z,72.09
2022-07-25T06:24:26.906Z,74.99
2022-07-25T06:29:28.460Z,77.14
2022-07-25T06:34:30.290Z,77.70
2022-07-25T06:39:31.982Z,78.76
2022-07-25T06:44:35.384Z,78.70
2022-07-25T06:49:37.029Z,78.99
2022-07-25T06:54:38.817Z,78.56
2022-07-25T06:59:40.357Z,78.37
2022-07-25T07:04:42.193Z,78.81
2022-07-25T07:09:44.303Z,79.48
2022-07-25T07:14:45.881Z,79.19
2022-07-25T07:19:47.493Z,79.13
2022-07-25T07:24:49.238Z,78.36
2022-07-25T07:29:51.878Z,78.09
2022-07-25T07:34:54.552Z,77.60
2022-07-25T07:39:56.138Z,76.99
2022-07-25T07:44:57.772Z,76.03
2022-07-25T07:49:59.287Z,76.57
2022-07-25T07:55:19.448Z,76.39
2022-07-25T08:00:21.540Z,78.33
2022-07-25T08:05:32.973Z,77.99
2022-07-25T08:10:37.029Z,76.97
2022-07-25T08:15:40.312Z,75.20
2022-07-25T08:20:42.014Z,72.81
2022-07-25T08:25:48.296Z,71.15
2022-07-25T08:30:50.004Z,72.18
2022-07-25T08:35:54.645Z,72.94
2022-07-25T08:40:57.758Z,73.55
2022-07-25T08:46:02.268Z,74.96
2022-07-25T08:51:04.648Z,74.79
2022-07-25T08:56:12.581Z,73.92
2022-07-25T09:01:17.946Z,73.76
2022-07-25T09:06:22.150Z,74.10
2022-07-25T09:11:41.995Z,72.96
2022-07-25T09:16:45.374Z,72.57
2022-07-25T09:22:10.584Z,72.31
2022-07-25T09:27:13.095Z,73.11
2022-07-25T09:32:20.619Z,72.84
2022-07-25T09:37:26.585Z,72.89
2022-07-25T09:42:33.497Z,72.43
2022-07-25T09:47:38.237Z,73.22
2022-07-25T09:52:40.390Z,71.59
2022-07-25T09:57:47.316Z,70.12
2022-07-25T10:02:55.167Z,69.88
2022-07-25T10:07:57.966Z,70.62
2022-07-25T10:13:10.201Z,70.19
2022-07-25T10:18:13.906Z,70.92
2022-07-25T10:23:28.790Z,70.60
2022-07-25T10:28:52.040Z,71.51
2022-07-25T10:34:36.242Z,71.63
2022-07-25T10:39:50.377Z,69.83
2022-07-25T10:45:18.580Z,70.16
2022-07-25T10:50:53.611Z,68.82
2022-07-25T10:56:05.761Z,69.69
2022-07-25T11:01:08.493Z,68.49
2022-07-25T11:06:10.421Z,68.91
2022-07-25T11:11:12.323Z,66.87
2022-07-25T11:16:14.205Z,65.61
2022-07-25T11:21:15.747Z,64.67
2022-07-25T11:26:18.141Z,65.26
2022-07-25T11:31:22.995Z,66.56
2022-07-25T11:36:24.893Z,67.07
2022-07-25T11:41:33.200Z,67.17
2022-07-25T11:46:42.727Z,66.83
2022-07-25T11:51:47.309Z,63.87
2022-07-25T11:56:49.017Z,64.65
2022-07-25T12:01:51.257Z,63.20
2022-07-25T12:07:04.283Z,61.01
2022-07-25T12:12:07.377Z,62.09
2022-07-25T12:17:09.054Z,60.37
2022-07-25T12:22:10.777Z,64.22
2022-07-25T12:27:16.041Z,63.68
2022-07-25T12:32:17.694Z,61.44
2022-07-25T12:37:21.679Z,62.51
2022-07-25T12:42:23.921Z,63.13
2022-07-25T12:47:27.309Z,61.47
2022-07-25T12:52:29.132Z,60.85
2022-07-25T12:57:30.845Z,62.48
2022-07-25T13:02:34.901Z,59.62
2022-07-25T13:07:38.020Z,58.03
2022-07-25T13:12:39.859Z,58.32
2022-07-25T13:17:42.025Z,60.09
2022-07-25T13:22:44.803Z,58.18
2022-07-25T13:27:48.580Z,60.44
2022-07-25T13:32:50.327Z,59.00
2022-07-25T13:37:52.247Z,58.64
2022-07-25T13:42:54.004Z,58.20
2022-07-25T13:48:26.785Z,56.68
2022-07-25T13:53:19.321Z,54.23
2022-07-25T13:58:21.101Z,55.17
2022-07-25T14:03:30.238Z,56.37
2022-07-25T14:08:32.026Z,58.36
2022-07-25T14:13:34.065Z,61.06
2022-07-25T14:18:35.932Z,58.24
2022-07-25T14:23:38.622Z,60.18
2022-07-25T14:28:40.343Z,61.81
2022-07-25T14:33:43.349Z,59.08
2022-07-25T14:38:47.362Z,57.54
2022-07-25T14:43:49.680Z,58.22
2022-07-25T14:48:52.773Z,57.69
2022-07-25T14:53:54.499Z,58.47
2022-07-25T14:58:56.196Z,59.24
2022-07-25T15:04:22.128Z,61.01
2022-07-25T15:09:24.051Z,60.35
2022-07-25T15:14:25.813Z,59.68
2022-07-25T15:19:28.857Z,61.52
2022-07-25T15:24:50.229Z,61.69
2022-07-25T15:29:57.059Z,63.25
2022-07-25T15:34:59.392Z,64.19
2022-07-25T15:40:01.315Z,63.74
2022-07-25T15:45:31.443Z,64.83
2022-07-25T15:50:25.052Z,63.59
2022-07-25T15:55:27.682Z,65.18
2022-07-25T16:00:30.417Z,66.34
2022-07-25T16:05:32.207Z,66.47
2022-07-25T16:10:34.389Z,66.68
2022-07-25T16:15:53.175Z,67.08
2022-07-25T16:20:55.012Z,68.22
2022-07-25T16:25:56.759Z,68.89
2022-07-25T16:31:03.625Z,69.78
2022-07-25T16:36:05.623Z,69.49
2022-07-25T16:41:07.406Z,69.82
2022-07-25T16:46:11.769Z,70.50
2022-07-25T16:51:13.953Z,70.96
2022-07-25T16:56:16.637Z,71.16
2022-07-25T17:01:18.936Z,70.76
2022-07-25T17:06:20.621Z,71.26
2022-07-25T17:11:22.632Z,72.67
2022-07-25T17:16:24.545Z,73.50
2022-07-25T17:21:26.287Z,72.92
2022-07-25T17:26:59.235Z,71.96
2022-07-25T17:32:02.921Z,73.31
2022-07-25T17:37:06.987Z,73.57
2022-07-25T17:42:08.622Z,72.53
2022-07-25T17:47:11.043Z,72.93
2022-07-25T17:52:12.911Z,73.16
2022-07-25T17:57:14.519Z,72.60
2022-07-25T18:02:16.370Z,72.50
2022-07-25T18:07:19.492Z,73.24
2022-07-25T18:12:23.771Z,73.44
2022-07-25T18:17:28.672Z,73.82
2022-07-25T18:22:30.805Z,73.25
2022-07-25T18:27:34.813Z,73.53
2022-07-25T18:32:38.329Z,72.29
2022-07-25T18:37:40.080Z,72.64
2022-07-25T18:42:42.747Z,73.29
2022-07-25T18:47:44.980Z,74.13
2022-07-25T18:52:46.704Z,74.01
2022-07-25T18:57:49.694Z,74.17
2022-07-25T19:02:51.540Z,73.92
2022-07-25T19:07:53.356Z,74.60
2022-07-25T19:12:55.115Z,75.02
2022-07-25T19:17:57.021Z,75.26
2022-07-25T19:23:01.864Z,75.66
2022-07-25T19:28:04.595Z,76.45
2022-07-25T19:33:06.294Z,76.12
2022-07-25T19:38:08.169Z,76.82
2022-07-25T19:43:12.863Z,77.03
2022-07-25T19:48:14.626Z,78.29
2022-07-25T19:53:16.315Z,79.20
2022-07-25T19:58:18.360Z,78.96
2022-07-25T20:03:23.353Z,80.54
2022-07-25T20:08:25.308Z,80.09
2022-07-25T20:13:27.939Z,80.11
2022-07-25T20:18:30.249Z,80.07
2022-07-25T20:24:35.480Z,79.91
2022-07-25T20:29:41.452Z,79.59
2022-07-25T20:34:45.893Z,79.23
2022-07-25T20:39:48.319Z,79.12
2022-07-25T20:44:50.658Z,79.48
2022-07-25T20:49:52.727Z,79.54
2022-07-25T20:54:54.421Z,80.27
2022-07-25T20:59:56.104Z,79.88
2022-07-25T21:04:57.836Z,80.38
2022-07-25T21:09:59.475Z,80.63
2022-07-25T21:15:01.367Z,80.74
2022-07-25T21:20:04.082Z,80.94
2022-07-25T21:25:09.225Z,81.32
2022-07-25T21:30:11.920Z,81.70
2022-07-25T21:35:22.209Z,81.83
2022-07-25T21:40:28.483Z,81.11
2022-07-25T21:45:31.772Z,81.20
2022-07-25T21:50:42.203Z,81.41
2022-07-25T21:55:45.691Z,81.10
2022-07-25T22:00:47.552Z,81.72
2022-07-25T22:05:49.321Z,82.14
2022-07-25T22:10:51.196Z,82.18
2022-07-25T22:15:53.840Z,82.30
2022-07-25T22:20:55.815Z,82.96
2022-07-25T22:25:57.519Z,83.04
2022-07-25T22:30:59.287Z,83.20
2022-07-25T22:36:01.507Z,82.75
2022-07-25T22:41:03.456Z,83.16
2022-07-25T22:46:05.207Z,84.02
2022-07-25T22:51:06.906Z,83.76
2022-07-25T22:56:08.801Z,83.43
2022-07-25T23:01:11.038Z,82.89
2022-07-25T23:06:13.158Z,81.70
2022-07-25T23:11:14.965Z,80.68
2022-07-25T23:16:16.640Z,79.89
2022-07-25T23:21:18.411Z,78.09
2022-07-25T23:26:20.072Z,76.53
2022-07-25T23:31:22.456Z,74.94
2022-07-25T23:36:26.321Z,74.21
2022-07-25T23:41:27.980Z,73.06
2022-07-25T23:46:33.652Z,71.77
2022-07-25T23:51:37.075Z,71.37
2022-07-25T23:56:38.877Z,70.45
